createdAt,value
2022-12-08T00:01:32.663Z,67.30
2022-12-08T00:04:01.560Z,67.23
2022-12-08T00:06:50.778Z,67.25
2022-12-08T00:09:38.215Z,67.21
2022-12-08T00:12:13.889Z,67.28
2022-12-08T00:14:43.048Z,67.35
2022-12-08T00:17:13.006Z,67.56
2022-12-08T00:19:41.219Z,67.64
2022-12-08T00:22:10.831Z,67.64
2022-12-08T00:24:40.081Z,67.33
2022-12-08T00:27:09.818Z,67.40
2022-12-08T00:29:38.018Z,67.06
2022-12-08T00:32:07.115Z,66.75
2022-12-08T00:34:35.173Z,66.72
2022-12-08T00:37:03.155Z,66.62
2022-12-08T00:39:31.947Z,66.47
2022-12-08T00:42:12.325Z,66.60
2022-12-08T00:44:44.739Z,66.38
2022-12-08T00:47:14.327Z,66.45
2022-12-08T00:49:42.213Z,66.50
2022-12-08T00:52:10.175Z,66.39
2022-12-08T00:54:38.315Z,66.37
2022-12-08T00:57:06.401Z,66.29
2022-12-08T00:59:34.288Z,66.31
2022-12-08T01:02:03.390Z,66.32
2022-12-08T01:04:31.424Z,66.32
2022-12-08T01:06:59.547Z,66.29
2022-12-08T01:09:27.588Z,66.21
2022-12-08T01:11:56.017Z,66.11
2022-12-08T01:14:24.045Z,66.28
2022-12-08T01:16:52.141Z,66.28
2022-12-08T01:19:20.136Z,66.27
2022-12-08T01:21:47.973Z,66.32
2022-12-08T01:24:20.092Z,66.36
2022-12-08T01:26:50.303Z,66.24
2022-12-08T01:29:18.352Z,66.15
2022-12-08T01:31:46.520Z,66.30
2022-12-08T01:34:14.468Z,66.14
2022-12-08T01:36:44.356Z,66.16
2022-12-08T01:39:18.255Z,66.20
2022-12-08T01:41:47.899Z,66.39
2022-12-08T01:44:15.749Z,66.77
2022-12-08T01:46:48.594Z,66.89
2022-12-08T01:49:22.293Z,66.90
2022-12-08T01:52:05.525Z,66.50
2022-12-08T01:54:39.115Z,66.42
2022-12-08T01:57:21.157Z,66.21
2022-12-08T01:59:59.794Z,66.19
2022-12-08T02:02:34.445Z,66.21
2022-12-08T02:05:03.600Z,66.21
2022-12-08T02:07:32.082Z,66.35
2022-12-08T02:10:01.225Z,66.52
2022-12-08T02:12:29.615Z,66.32
2022-12-08T02:15:01.856Z,66.41
2022-12-08T02:17:44.269Z,66.49
2022-12-08T02:20:44.881Z,66.52
2022-12-08T02:23:35.682Z,66.54
2022-12-08T02:26:37.334Z,66.56
2022-12-08T02:29:28.698Z,66.60
2022-12-08T02:32:42.401Z,66.68
2022-12-08T02:35:22.459Z,66.66
2022-12-08T02:37:54.984Z,66.60
2022-12-08T02:40:53.187Z,66.70
2022-12-08T02:43:35.363Z,66.75
2022-12-08T02:46:11.304Z,66.76
2022-12-08T02:48:40.214Z,66.84
2022-12-08T02:51:08.934Z,66.89
2022-12-08T02:53:37.098Z,66.81
2022-12-08T02:56:46.842Z,67.04
2022-12-08T03:00:00.252Z,67.03
2022-12-08T03:02:56.534Z,67.05
2022-12-08T03:06:02.443Z,67.10
2022-12-08T03:08:30.315Z,66.95
2022-12-08T03:11:20.452Z,66.95
2022-12-08T03:13:53.142Z,66.82
2022-12-08T03:16:23.947Z,66.82
2022-12-08T03:19:00.454Z,66.82
2022-12-08T03:21:29.809Z,66.94
2022-12-08T03:23:57.900Z,66.97
2022-12-08T03:26:34.400Z,66.87
2022-12-08T03:29:02.934Z,66.99
2022-12-08T03:31:37.612Z,67.03
2022-12-08T03:34:06.589Z,66.98
2022-12-08T03:36:34.629Z,66.98
2022-12-08T03:39:02.800Z,67.08
2022-12-08T03:41:30.792Z,67.12
2022-12-08T03:43:59.691Z,67.15
2022-12-08T03:48:57.396Z,67.11
2022-12-08T03:51:27.346Z,67.19
2022-12-08T03:53:55.199Z,67.03
2022-12-08T03:56:33.222Z,66.97
2022-12-08T03:59:01.584Z,67.10
2022-12-08T04:01:29.609Z,66.95
2022-12-08T04:03:57.892Z,67.01
2022-12-08T04:06:26.165Z,66.94
2022-12-08T04:08:54.261Z,66.82
2022-12-08T04:11:22.571Z,66.78
2022-12-08T04:13:50.541Z,66.90
2022-12-08T04:16:22.136Z,67.01
2022-12-08T04:18:50.253Z,66.99
2022-12-08T04:21:18.293Z,67.06
2022-12-08T04:23:46.716Z,67.05
2022-12-08T04:26:14.969Z,66.81
2022-12-08T04:28:43.682Z,66.74
2022-12-08T04:31:11.753Z,66.96
2022-12-08T04:33:39.828Z,66.97
2022-12-08T04:36:08.897Z,67.08
2022-12-08T04:38:37.574Z,67.03
2022-12-08T04:41:06.168Z,67.17
2022-12-08T04:43:34.116Z,67.23
2022-12-08T04:46:02.132Z,67.34
2022-12-08T04:48:30.069Z,67.42
2022-12-08T04:50:58.072Z,67.30
2022-12-08T04:53:27.236Z,67.31
2022-12-08T04:55:55.623Z,67.42
2022-12-08T04:58:23.680Z,67.32
2022-12-08T05:00:51.975Z,67.13
2022-12-08T05:03:25.283Z,67.17
2022-12-08T05:05:56.425Z,67.21
2022-12-08T05:08:24.806Z,67.22
2022-12-08T05:10:53.114Z,67.33
2022-12-08T05:13:21.089Z,67.30
2022-12-08T05:15:49.122Z,67.01
2022-12-08T05:18:17.330Z,67.03
2022-12-08T05:20:45.363Z,67.09
2022-12-08T05:23:13.290Z,67.05
2022-12-08T05:25:41.283Z,67.05
2022-12-08T05:28:39.645Z,67.06
2022-12-08T05:30:57.180Z,67.25
2022-12-08T05:33:25.212Z,67.15
2022-12-08T05:35:53.207Z,67.05
2022-12-08T05:38:21.243Z,67.12
2022-12-08T05:40:49.207Z,66.99
2022-12-08T05:43:17.273Z,67.10
2022-12-08T05:45:45.302Z,67.23
2022-12-08T05:48:13.557Z,67.13
2022-12-08T05:50:47.031Z,67.20
2022-12-08T05:53:16.305Z,67.34
2022-12-08T05:55:44.526Z,67.20
2022-12-08T05:58:14.980Z,67.14
2022-12-08T06:00:43.712Z,66.97
2022-12-08T06:03:13.062Z,66.95
2022-12-08T06:05:42.956Z,66.65
2022-12-08T06:08:11.228Z,66.51
2022-12-08T06:10:43.634Z,66.60
2022-12-08T06:13:12.626Z,66.64
2022-12-08T06:15:41.209Z,66.32
2022-12-08T06:18:10.995Z,66.46
2022-12-08T06:20:39.055Z,66.47
2022-12-08T06:23:06.922Z,66.50
2022-12-08T06:25:35.012Z,66.63
2022-12-08T06:28:05.149Z,66.54
2022-12-08T06:30:33.321Z,66.50
2022-12-08T06:33:01.241Z,66.57
2022-12-08T06:35:29.398Z,66.46
2022-12-08T06:37:57.572Z,66.29
2022-12-08T06:40:25.647Z,66.26
2022-12-08T06:42:53.831Z,65.98
2022-12-08T06:45:21.835Z,66.00
2022-12-08T06:47:49.880Z,65.92
2022-12-08T06:50:17.859Z,65.77
2022-12-08T06:52:58.228Z,65.64
2022-12-08T06:58:19.863Z,65.22
2022-12-08T07:00:47.922Z,65.19
2022-12-08T07:03:15.991Z,65.10
2022-12-08T07:05:44.025Z,65.14
2022-12-08T07:08:12.130Z,64.98
2022-12-08T07:10:40.246Z,64.83
2022-12-08T07:13:08.196Z,65.13
2022-12-08T07:15:36.255Z,65.17
2022-12-08T07:18:04.200Z,65.07
2022-12-08T07:20:32.371Z,64.76
2022-12-08T07:23:00.405Z,64.69
2022-12-08T07:25:28.574Z,64.69
2022-12-08T07:27:56.648Z,64.65
2022-12-08T07:30:24.572Z,64.56
2022-12-08T07:32:52.736Z,64.71
2022-12-08T07:35:21.573Z,64.52
2022-12-08T07:37:50.300Z,64.50
2022-12-08T07:40:18.336Z,64.42
2022-12-08T07:42:46.190Z,64.33
2022-12-08T07:45:14.313Z,64.06
2022-12-08T07:47:42.182Z,63.56
2022-12-08T07:50:10.475Z,63.18
2022-12-08T07:52:38.505Z,62.85
2022-12-08T07:55:06.912Z,62.79
2022-12-08T07:57:34.857Z,62.39
2022-12-08T08:00:05.010Z,62.39
2022-12-08T08:02:40.338Z,62.21
2022-12-08T08:05:09.503Z,62.30
2022-12-08T08:07:38.299Z,62.50
2022-12-08T08:10:07.509Z,62.24
2022-12-08T08:12:36.832Z,62.29
2022-12-08T08:15:08.350Z,62.00
2022-12-08T08:17:38.105Z,61.98
2022-12-08T08:20:07.405Z,61.93
2022-12-08T08:22:35.790Z,61.84
2022-12-08T08:25:04.210Z,62.05
2022-12-08T08:27:32.112Z,61.98
2022-12-08T08:30:00.165Z,62.12
2022-12-08T08:32:28.253Z,61.04
2022-12-08T08:34:56.248Z,60.92
2022-12-08T08:37:24.224Z,60.52
2022-12-08T08:39:52.325Z,60.61
2022-12-08T08:42:23.094Z,60.64
2022-12-08T08:44:51.199Z,60.58
2022-12-08T08:47:19.148Z,60.70
2022-12-08T08:49:47.226Z,60.67
2022-12-08T08:52:15.150Z,60.51
2022-12-08T08:54:43.007Z,60.37
2022-12-08T08:57:12.368Z,60.33
2022-12-08T08:59:40.316Z,60.03
2022-12-08T09:02:17.444Z,60.24
2022-12-08T09:04:45.899Z,60.22
2022-12-08T09:07:14.835Z,59.49
2022-12-08T09:09:42.783Z,59.46
2022-12-08T09:12:11.131Z,59.47
2022-12-08T09:14:39.243Z,59.51
2022-12-08T09:17:07.823Z,59.08
2022-12-08T09:19:35.927Z,58.40
2022-12-08T09:22:04.325Z,58.08
2022-12-08T09:24:32.333Z,57.75
2022-12-08T09:27:00.280Z,57.37
2022-12-08T09:29:34.046Z,57.78
2022-12-08T09:32:04.236Z,57.62
2022-12-08T09:34:32.243Z,57.26
2022-12-08T09:37:00.682Z,56.92
2022-12-08T09:39:28.683Z,56.94
2022-12-08T09:42:02.438Z,56.71
2022-12-08T09:45:04.234Z,55.60
2022-12-08T09:47:43.737Z,55.15
2022-12-08T09:50:35.075Z,54.56
2022-12-08T09:53:14.883Z,54.04
2022-12-08T09:56:13.789Z,53.99
2022-12-08T09:59:00.499Z,52.93
2022-12-08T10:01:30.094Z,53.46
2022-12-08T10:03:58.191Z,53.40
2022-12-08T10:06:47.554Z,53.71
2022-12-08T10:09:53.063Z,53.82
2022-12-08T10:12:44.565Z,54.26
2022-12-08T10:15:44.152Z,54.25
2022-12-08T10:18:25.193Z,54.35
2022-12-08T10:20:58.007Z,54.34
2022-12-08T10:23:35.213Z,54.28
2022-12-08T10:26:06.404Z,54.10
2022-12-08T10:28:40.028Z,54.17
2022-12-08T10:31:21.271Z,54.48
2022-12-08T10:33:58.693Z,54.78
2022-12-08T10:36:47.713Z,54.65
2022-12-08T10:39:35.741Z,54.35
2022-12-08T10:42:16.723Z,54.38
2022-12-08T10:45:10.764Z,54.49
2022-12-08T10:47:44.823Z,54.47
2022-12-08T10:50:22.858Z,54.83
2022-12-08T10:53:02.196Z,55.13
2022-12-08T10:55:39.271Z,55.24
2022-12-08T10:58:23.583Z,55.32
2022-12-08T11:00:55.902Z,55.15
2022-12-08T11:03:29.424Z,55.35
2022-12-08T11:06:05.382Z,55.39
2022-12-08T11:08:47.969Z,55.69
2022-12-08T11:11:17.051Z,55.61
2022-12-08T11:13:47.652Z,55.33
2022-12-08T11:16:18.179Z,55.59
2022-12-08T11:18:55.300Z,55.54
2022-12-08T11:21:35.451Z,55.54
2022-12-08T11:24:15.857Z,55.09
2022-12-08T11:26:51.396Z,55.18
2022-12-08T11:29:19.936Z,55.25
2022-12-08T11:31:53.556Z,55.52
2022-12-08T11:34:37.378Z,55.77
2022-12-08T11:37:11.183Z,55.78
2022-12-08T11:39:48.602Z,55.73
2022-12-08T11:42:18.623Z,55.52
2022-12-08T11:44:58.248Z,55.59
2022-12-08T11:47:39.296Z,55.33
2022-12-08T11:50:29.821Z,55.67
2022-12-08T11:52:59.986Z,55.91
2022-12-08T11:55:37.349Z,55.99
2022-12-08T11:58:18.746Z,55.50
2022-12-08T12:00:47.138Z,55.76
2022-12-08T12:03:21.304Z,55.58
2022-12-08T12:06:13.569Z,55.81
2022-12-08T12:09:37.734Z,55.86
2022-12-08T12:12:15.979Z,55.97
2022-12-08T12:15:19.178Z,55.65
2022-12-08T12:17:47.346Z,56.10
2022-12-08T12:20:30.882Z,56.69
2022-12-08T12:23:06.096Z,57.01
2022-12-08T12:25:36.984Z,57.24
2022-12-08T12:28:09.513Z,57.20
2022-12-08T12:30:52.764Z,57.46
2022-12-08T12:33:22.647Z,57.86
2022-12-08T12:35:51.345Z,58.29
2022-12-08T12:39:08.652Z,58.44
2022-12-08T12:41:53.012Z,58.43
2022-12-08T12:44:24.094Z,58.68
2022-12-08T12:46:53.541Z,59.09
2022-12-08T12:49:39.984Z,59.57
2022-12-08T12:52:17.118Z,59.90
2022-12-08T12:54:58.786Z,60.18
2022-12-08T12:57:38.083Z,60.48
2022-12-08T13:00:19.767Z,60.89
2022-12-08T13:02:49.764Z,61.09
2022-12-08T13:05:49.620Z,61.62
2022-12-08T13:08:26.009Z,62.15
2022-12-08T13:11:02.356Z,62.47
2022-12-08T13:13:30.861Z,63.01
2022-12-08T13:16:19.561Z,63.36
2022-12-08T13:18:56.482Z,63.32
2022-12-08T13:21:31.817Z,63.62
2022-12-08T13:24:18.021Z,63.56
2022-12-08T13:26:48.938Z,64.23
2022-12-08T13:29:18.814Z,64.14
2022-12-08T13:31:51.409Z,64.36
2022-12-08T13:34:34.326Z,64.76
2022-12-08T13:37:11.633Z,65.24
2022-12-08T13:39:41.775Z,65.43
2022-12-08T13:42:12.236Z,65.59
2022-12-08T13:45:59.165Z,65.69
2022-12-08T13:56:16.679Z,66.53
2022-12-08T13:57:33.065Z,66.98
2022-12-08T14:00:07.491Z,66.88
2022-12-08T14:02:47.750Z,66.98
2022-12-08T14:05:20.606Z,67.00
2022-12-08T14:07:56.614Z,67.10
2022-12-08T14:10:32.245Z,67.18
2022-12-08T14:13:03.989Z,67.36
2022-12-08T14:15:38.398Z,67.50
2022-12-08T14:18:31.595Z,67.59
2022-12-08T14:21:20.871Z,67.52
2022-12-08T14:23:50.024Z,67.66
2022-12-08T14:26:18.094Z,67.47
2022-12-08T14:28:51.481Z,67.53
2022-12-08T14:31:20.517Z,67.53
2022-12-08T14:33:51.866Z,67.71
2022-12-08T14:36:24.949Z,67.77
2022-12-08T14:38:54.625Z,67.90
2022-12-08T14:41:31.944Z,67.93
2022-12-08T14:44:03.357Z,67.87
2022-12-08T14:46:31.502Z,68.05
2022-12-08T14:48:59.831Z,68.07
2022-12-08T14:51:31.639Z,67.95
2022-12-08T14:53:59.855Z,68.13
2022-12-08T14:56:42.347Z,68.18
2022-12-08T14:59:30.614Z,68.02
2022-12-08T15:02:27.732Z,68.00
2022-12-08T15:05:01.771Z,68.16
2022-12-08T15:07:31.318Z,68.10
2022-12-08T15:10:31.197Z,68.60
2022-12-08T15:13:10.420Z,69.08
2022-12-08T15:15:52.588Z,69.07
2022-12-08T15:18:41.024Z,69.07
2022-12-08T15:21:13.272Z,69.28
2022-12-08T15:23:50.072Z,69.28
2022-12-08T15:26:24.027Z,69.44
2022-12-08T15:28:52.665Z,69.39
2022-12-08T15:31:21.079Z,69.34
2022-12-08T15:33:49.054Z,69.47
2022-12-08T15:36:16.974Z,69.43
2022-12-08T15:38:45.082Z,69.48
2022-12-08T15:41:15.187Z,69.61
2022-12-08T15:43:43.361Z,69.67
2022-12-08T15:46:12.147Z,69.74
2022-12-08T15:48:40.839Z,69.79
2022-12-08T15:51:08.890Z,69.72
2022-12-08T15:53:36.909Z,70.11
2022-12-08T15:58:57.362Z,70.48
2022-12-08T16:01:26.901Z,70.48
2022-12-08T16:09:40.377Z,70.62
2022-12-08T16:13:13.894Z,70.69
2022-12-08T16:18:17.005Z,70.45
2022-12-08T16:21:07.410Z,70.42
2022-12-08T16:23:47.989Z,70.49
2022-12-08T16:27:06.851Z,70.39
2022-12-08T16:29:19.056Z,70.39
2022-12-08T16:31:47.347Z,70.43
2022-12-08T16:34:15.773Z,70.44
2022-12-08T16:36:43.764Z,70.34
2022-12-08T16:39:13.819Z,70.35
2022-12-08T16:42:00.655Z,70.24
2022-12-08T16:44:28.667Z,70.29
2022-12-08T16:46:56.754Z,70.21
2022-12-08T16:49:25.057Z,70.38
2022-12-08T16:51:53.166Z,70.24
2022-12-08T16:54:21.016Z,70.44
2022-12-08T16:56:48.901Z,70.53
2022-12-08T16:59:16.764Z,70.47
2022-12-08T17:01:44.817Z,70.47
2022-12-08T17:07:00.795Z,70.49
2022-12-08T17:09:31.028Z,70.38
2022-12-08T17:12:03.675Z,70.32
2022-12-08T17:14:34.751Z,70.30
2022-12-08T17:17:03.068Z,70.05
2022-12-08T17:19:31.057Z,69.93
2022-12-08T17:21:59.168Z,69.76
2022-12-08T17:24:29.180Z,69.52
2022-12-08T17:26:58.986Z,69.60
2022-12-08T17:29:26.884Z,69.70
2022-12-08T17:31:54.874Z,69.72
2022-12-08T17:34:23.209Z,69.79
2022-12-08T17:36:51.908Z,69.86
2022-12-08T17:39:19.831Z,69.79
2022-12-08T17:41:47.945Z,69.61
2022-12-08T17:44:17.530Z,69.60
2022-12-08T17:46:52.091Z,69.32
2022-12-08T17:49:22.958Z,69.29
2022-12-08T17:51:53.201Z,69.35
2022-12-08T17:54:21.643Z,69.34
2022-12-08T17:56:49.737Z,69.42
2022-12-08T17:59:17.978Z,69.39
2022-12-08T18:01:45.854Z,69.27
2022-12-08T18:04:13.895Z,69.34
2022-12-08T18:06:42.287Z,69.47
2022-12-08T18:09:10.551Z,69.46
2022-12-08T18:11:38.909Z,69.49
2022-12-08T18:14:10.397Z,69.35
2022-12-08T18:16:44.105Z,69.11
2022-12-08T18:19:13.844Z,68.85
2022-12-08T18:21:42.530Z,68.89
2022-12-08T18:24:19.522Z,68.81
2022-12-08T18:26:48.208Z,68.59
2022-12-08T18:29:16.043Z,68.26
2022-12-08T18:31:43.949Z,68.27
2022-12-08T18:34:11.817Z,68.29
2022-12-08T18:36:39.821Z,68.38
2022-12-08T18:39:10.978Z,68.41
2022-12-08T18:41:40.252Z,68.16
2022-12-08T18:44:08.071Z,67.84
2022-12-08T18:46:36.175Z,67.69
2022-12-08T18:49:09.211Z,67.82
2022-12-08T18:51:37.292Z,67.89
2022-12-08T18:54:05.352Z,67.98
2022-12-08T18:56:35.141Z,67.93
2022-12-08T18:59:06.694Z,67.86
2022-12-08T19:01:37.782Z,67.89
2022-12-08T19:06:56.968Z,68.18
2022-12-08T19:09:26.992Z,68.32
2022-12-08T19:11:56.869Z,68.33
2022-12-08T19:14:28.304Z,68.27
2022-12-08T19:16:57.849Z,67.98
2022-12-08T19:19:26.845Z,67.54
2022-12-08T19:21:55.043Z,67.34
2022-12-08T19:24:24.213Z,67.28
2022-12-08T19:26:52.441Z,67.20
2022-12-08T19:29:20.583Z,67.12
2022-12-08T19:31:48.761Z,67.25
2022-12-08T19:34:19.648Z,67.17
2022-12-08T19:36:47.966Z,66.98
2022-12-08T19:39:40.930Z,66.73
2022-12-08T19:42:35.602Z,66.62
2022-12-08T19:45:16.724Z,66.39
2022-12-08T19:47:45.001Z,66.27
2022-12-08T19:50:32.905Z,66.01
2022-12-08T19:53:01.447Z,65.84
2022-12-08T19:55:29.493Z,65.80
2022-12-08T19:57:58.489Z,65.82
2022-12-08T20:00:26.432Z,66.03
2022-12-08T20:02:54.507Z,66.17
2022-12-08T20:05:23.133Z,66.29
2022-12-08T20:07:52.369Z,66.24
2022-12-08T20:10:22.186Z,66.14
2022-12-08T20:12:50.482Z,66.16
2022-12-08T20:15:18.544Z,66.10
2022-12-08T20:17:46.570Z,66.07
2022-12-08T20:20:15.294Z,65.89
2022-12-08T20:22:45.366Z,65.77
2022-12-08T20:25:13.695Z,65.84
2022-12-08T20:27:41.778Z,66.10
2022-12-08T20:30:16.552Z,66.26
2022-12-08T20:32:45.769Z,66.30
2022-12-08T20:35:15.396Z,66.24
2022-12-08T20:37:43.400Z,66.08
2022-12-08T20:40:11.793Z,65.99
2022-12-08T20:42:39.730Z,65.77
2022-12-08T20:45:09.692Z,65.92
2022-12-08T20:47:38.533Z,66.08
2022-12-08T20:50:07.797Z,66.23
2022-12-08T20:52:38.013Z,66.32
2022-12-08T20:55:07.884Z,66.39
2022-12-08T20:57:35.869Z,66.11
2022-12-08T21:00:06.184Z,65.94
2022-12-08T21:02:34.657Z,65.57
2022-12-08T21:05:03.553Z,65.51
2022-12-08T21:07:32.555Z,65.68
2022-12-08T21:10:00.594Z,65.68
2022-12-08T21:12:28.672Z,65.83
2022-12-08T21:14:56.824Z,65.94
2022-12-08T21:17:25.427Z,65.69
2022-12-08T21:19:53.974Z,65.79
2022-12-08T21:22:22.037Z,65.87
2022-12-08T21:24:50.151Z,65.75
2022-12-08T21:27:18.138Z,65.65
2022-12-08T21:29:46.113Z,65.71
2022-12-08T21:32:15.375Z,65.88
2022-12-08T21:34:44.291Z,65.83
2022-12-08T21:37:12.350Z,65.67
2022-12-08T21:39:40.415Z,65.39
2022-12-08T21:42:33.937Z,65.11
2022-12-08T21:45:02.423Z,65.10
2022-12-08T21:47:30.657Z,65.15
2022-12-08T21:49:58.794Z,65.11
2022-12-08T21:52:26.934Z,64.94
2022-12-08T21:54:54.904Z,64.89
2022-12-08T21:57:23.082Z,65.00
2022-12-08T21:59:51.206Z,65.11
2022-12-08T22:02:22.348Z,65.19
2022-12-08T22:04:52.833Z,65.40
2022-12-08T22:07:21.646Z,65.40
2022-12-08T22:09:49.937Z,65.72
2022-12-08T22:12:18.224Z,65.92
2022-12-08T22:14:46.316Z,65.90
2022-12-08T22:17:14.377Z,65.79
2022-12-08T22:19:42.633Z,65.69
2022-12-08T22:22:10.639Z,65.72
2022-12-08T22:24:38.661Z,65.68
2022-12-08T22:27:06.694Z,65.67
2022-12-08T22:29:34.871Z,65.82
2022-12-08T22:32:03.036Z,66.06
2022-12-08T22:34:31.405Z,66.20
2022-12-08T22:36:59.490Z,66.23
2022-12-08T22:39:27.677Z,66.26
2022-12-08T22:41:55.625Z,66.17
2022-12-08T22:44:23.625Z,66.13
2022-12-08T22:46:51.724Z,66.34
2022-12-08T22:49:19.933Z,66.16
2022-12-08T22:51:47.908Z,65.81
2022-12-08T22:54:15.786Z,65.85
2022-12-08T22:56:43.953Z,65.95
2022-12-08T22:59:12.219Z,66.18
2022-12-08T23:01:40.174Z,66.20
2022-12-08T23:04:15.805Z,66.26
2022-12-08T23:06:45.732Z,66.24
2022-12-08T23:09:13.949Z,66.22
2022-12-08T23:11:42.284Z,66.05
2022-12-08T23:14:10.293Z,66.09
2022-12-08T23:16:38.516Z,66.14
2022-12-08T23:19:07.207Z,66.29
2022-12-08T23:21:35.182Z,66.30
2022-12-08T23:24:03.259Z,66.55
2022-12-08T23:26:33.252Z,66.61
2022-12-08T23:29:01.212Z,66.64
2022-12-08T23:31:29.401Z,66.92
2022-12-08T23:33:57.489Z,66.87
2022-12-08T23:36:28.736Z,66.62
2022-12-08T23:38:56.648Z,66.58
2022-12-08T23:41:24.547Z,66.52
2022-12-08T23:43:52.525Z,66.56
2022-12-08T23:46:21.369Z,66.53
2022-12-08T23:48:51.309Z,66.46
2022-12-08T23:51:20.039Z,66.66
2022-12-08T23:53:48.478Z,66.42
2022-12-08T23:56:17.957Z,66.39
2022-12-08T23:58:46.507Z,66.23
